• Join FlightAware (Why Join?)
  • Login
  • US Flag 
03:00AM EDT


 

Airport Tracker/Info


-or-


 

Live Flight TrackerFlight Track Log ✈ SWA2955 ✈ 11-Apr-2013 ✈ KMSY - KDAL

Flight Track Log - Related Links

Times and Time Zones

All times are in EDT time to prevent confusion due to time zone crossing. See the SWA2955 flight status page for this flight to view local times or setup timezone preferences in your user account.

Time Position Orientation Groundspeed Altitude Reporting Facility
EDT Latitude Longitude Course Direction KTS MPH feet Rate Location/Type
01:02PM 29.9450 -90.2622 195° South 162 186 3,700  Level Houston Center
01:03PM 29.8950 -90.2714 189° South 230 265 5,700 1,440 Climbing Houston Center
01:04PM 29.8353 -90.3003 203° Southwest 245 282 6,500 2,040 Climbing Houston Center
01:05PM 29.8081 -90.3692 246° West 251 289 10,200 3,240 Climbing Houston Center
01:06PM 29.7997 -90.4500 263° West 256 295 13,800 3,360 Climbing Houston Center
01:07PM 29.8125 -90.5581 278° West 284 327 17,200 3,060 Climbing Houston Center
01:08PM 29.8536 -90.6469 298° West 338 389 20,100 2,640 Climbing Houston Center
01:09PM 29.9183 -90.7297 312° West 346 398 22,700 2,280 Climbing Houston Center
01:10PM 29.9817 -90.8178 310° West 355 409 24,900 1,620 Climbing Houston Center
01:11PM 30.0381 -90.9175 303° West 368 423 26,100 1,080 Climbing Houston Center
01:12PM 30.1047 -91.0292 305° West 421 484 27,200 1,380 Climbing Houston Center
01:13PM 30.1853 -91.1369 311° West 438 504 29,000 1,800 Climbing Houston Center
01:14PM 30.2875 -91.2661 313° West 451 519 31,000 1,740 Climbing Houston Center
01:15PM 30.3731 -91.3728 313° West 451 519 32,700 1,620 Climbing Houston Center
01:17PM 30.4572 -91.4794 312° West 448 516 34,400 1,440 Climbing Houston Center
01:18PM 30.5378 -91.5794 313° West 445 512 35,700 1,380 Climbing Houston Center
01:19PM 30.6203 -91.6853 312° West 443 510 37,300 1,080 Climbing Houston Center
01:20PM 30.7181 -91.8100 312° West 436 502 38,000 300 Climbing Houston Center
01:21PM 30.8006 -91.9153 312° West 437 503 38,000  Level Houston Center
01:22PM 30.8839 -92.0208 313° West 441 507 38,000  Level Houston Center
01:23PM 30.9672 -92.1275 312° West 445 512 38,000  Level Houston Center
01:24PM 31.0514 -92.2372 312° West 439 505 38,000  Level Houston Center
01:25PM 31.1344 -92.3428 313° West 441 507 38,000  Level Houston Center
01:26PM 31.2172 -92.4500 312° West 444 511 38,000  Level Houston Center
01:27PM 31.2811 -92.5678 302° West 439 505 38,000  Level Houston Center
01:28PM 31.3375 -92.7142 294° West 417 480 38,000  Level Houston Center
01:29PM 31.3842 -92.8392 294° West 418 481 38,000  Level Houston Center
01:30PM 31.4311 -92.9625 294° West 418 481 38,000  Level Houston Center
01:31PM 31.4778 -93.0858 294° West 416 479 38,000 -60 Level Houston Center
01:32PM 31.5228 -93.2086 293° West 414 476 37,900  Descending Houston Center
01:33PM 31.5725 -93.3411 294° West 412 474 38,000  Climbing Houston Center
01:34PM 31.6186 -93.4644 294° West 413 475 38,000  Level Houston Center
01:35PM 31.6539 -93.5744 291° West 410 472 38,000  Level Fort Worth Center
01:36PM 31.7014 -93.6972 294° West 410 472 38,000  Level Fort Worth Center
01:37PM 31.7467 -93.8222 293° West 410 472 38,000  Level Fort Worth Center
01:38PM 31.7753 -93.9483 285° West 410 472 38,000  Level Fort Worth Center
01:39PM 31.7997 -94.0769 283° West 404 465 38,000  Level Fort Worth Center
01:40PM 31.8281 -94.2078 284° West 404 465 38,000  Level Fort Worth Center
01:41PM 31.8753 -94.3358 294° West 418 481 38,000  Level Fort Worth Center
01:42PM 31.9222 -94.4642 293° West 423 487 38,000 -180 Level Fort Worth Center
01:44PM 32.0094 -94.7233 292° West 428 493 37,600 -720 Descending Fort Worth Center
01:45PM 32.0558 -94.8519 293° West 428 493 35,900 -2,400 Descending Fort Worth Center
01:46PM 32.1067 -95.0000 292° West 436 502 32,800 -2,760 Descending Fort Worth Center
01:47PM 32.1531 -95.1314 293° West 436 502 30,400 -2,400 Descending Fort Worth Center
01:48PM 32.1950 -95.2581 291° West 430 495 28,100 -2,280 Descending Fort Worth Center
01:49PM 32.2389 -95.3822 293° West 420 483 25,900 -2,220 Descending Fort Worth Center
01:50PM 32.2783 -95.5017 291° West 410 472 23,700 -2,100 Descending Fort Worth Center
01:51PM 32.3194 -95.6139 293° West 393 452 21,700 -1,920 Descending Fort Worth Center
01:52PM 32.3544 -95.7239 291° West 378 435 19,900 -1,920 Descending Fort Worth Center
01:53PM 32.3914 -95.8289 293° West 363 418 17,900 -2,040 Descending Fort Worth Center
01:54PM 32.4281 -95.9342 292° West 353 406 15,900 -2,100 Descending Fort Worth Center
01:55PM 32.4625 -96.0319 293° West 334 384 13,700 -2,040 Descending Fort Worth Center
01:56PM 32.4950 -96.1300 291° West 326 375 11,900 -1,740 Descending Fort Worth Center
01:57PM 32.5250 -96.2208 291° West 313 360 10,300 -1,260 Descending Fort Worth Center
01:58PM 32.5531 -96.3019 292° West 285 328 9,500 -1,080 Descending Fort Worth Center
01:59PM 32.5828 -96.3681 298° West 259 298 8,200 -1,560 Descending Fort Worth Center
02:00PM 32.6147 -96.4492 295° West 250 288 6,400 -1,620 Descending Fort Worth Center
02:01PM 32.6297 -96.5228 284° West 255 293 5,100 -1,560 Descending Fort Worth Center
02:02PM 32.6722 -96.5989 304° West 250 288 3,300 -1,080 Descending Fort Worth Center
02:03PM 32.7058 -96.6581 304° West 251 289 3,000 -180 Descending Fort Worth Center
02:04PM 32.7458 -96.7242 306° West 234 269 3,000 -240 Level Fort Worth Center
02:05PM 32.7733 -96.7736 303° West 215 247 2,600 -420 Descending Fort Worth Center
02:05PM 32.7833 -96.7833 321° Northwest 167 192 2,500 -1,260 Descending Dallas / Fort Worth TRACON
02:06PM 32.8167 -96.8167 320° Northwest 138 159 1,100 -1,560 Descending Dallas / Fort Worth TRACON
02:13PM 32.8471 -96.8518 308° West  Level Estimated
02:20PM 32.8471 -96.8518 130° Southeast  Level Estimated
02:21PM 32.8471 -96.8518 130° Southeast  Level Estimated
02:22PM 32.8471 -96.8518 130° Southeast  Level Estimated